Time;durP1;ratioP1;P1;durP2;ratioP2;P2;SDS_P1;SDS_P2;PMS_P1;PMS_P2;Temp;Humidity;BMP_temperature;BMP_pressure;BME280_temperature;BME280_humidity;BME280_pressure;Samples;Min_cycle;Max_cycle;Signal;HPM_P1;HPM_P2
2021/05/05 00:00:17;;;;;;;4.33;2.50;;;8.20;99.90;;;;;;4939779;29;20450;-77
2021/05/05 00:02:45;;;;;;;7.63;3.07;;;8.10;99.90;;;;;;4941697;29;20482;-77
2021/05/05 00:05:14;;;;;;;4.63;3.30;;;8.00;99.90;;;;;;4938461;29;20553;-77
2021/05/05 00:07:42;;;;;;;3.33;2.73;;;8.00;99.90;;;;;;4921708;29;20447;-77
2021/05/05 00:10:11;;;;;;;5.43;2.40;;;7.90;99.90;;;;;;4920669;29;20945;-77
2021/05/05 00:12:39;;;;;;;5.27;2.70;;;7.90;99.90;;;;;;4937915;29;20588;-77
2021/05/05 00:15:10;;;;;;;4.80;3.30;;;7.90;99.90;;;;;;4939155;29;20962;-77
2021/05/05 00:17:37;;;;;;;5.57;3.23;;;7.80;99.90;;;;;;4939930;29;20512;-77
2021/05/05 00:20:07;;;;;;;8.03;3.60;;;7.80;99.90;;;;;;4939742;29;20994;-77
2021/05/05 00:22:34;;;;;;;5.37;4.67;;;7.70;99.90;;;;;;4939498;29;21078;-77
2021/05/05 00:25:01;;;;;;;7.30;4.20;;;7.70;99.90;;;;;;4939359;29;20442;-77
2021/05/05 00:27:29;;;;;;;5.03;3.03;;;7.70;99.90;;;;;;4937789;29;20442;-77
2021/05/05 00:29:58;;;;;;;8.27;3.73;;;7.60;99.90;;;;;;4920163;29;20538;-76
2021/05/05 00:32:25;;;;;;;4.30;3.70;;;7.60;99.90;;;;;;4940370;29;21072;-77
2021/05/05 00:34:52;;;;;;;5.37;3.53;;;7.60;99.90;;;;;;4946149;29;20812;-77
2021/05/05 00:37:19;;;;;;;6.17;4.70;;;7.60;99.90;;;;;;4937308;29;20948;-76
2021/05/05 00:39:46;;;;;;;4.50;3.67;;;7.60;99.90;;;;;;4931848;29;20451;-77
2021/05/05 00:42:13;;;;;;;4.10;3.70;;;7.50;99.90;;;;;;4937398;29;20480;-77
2021/05/05 00:44:40;;;;;;;6.27;3.70;;;7.50;99.90;;;;;;4957934;28;20437;-77
2021/05/05 00:47:09;;;;;;;5.80;4.17;;;7.50;99.90;;;;;;4956258;28;20548;-77
2021/05/05 00:49:37;;;;;;;4.40;3.47;;;7.50;99.90;;;;;;4942692;28;20451;-77
2021/05/05 00:52:05;;;;;;;4.57;3.27;;;7.50;99.90;;;;;;4925521;29;20569;-77
2021/05/05 00:54:32;;;;;;;5.70;3.67;;;7.50;99.90;;;;;;4918582;29;20443;-77
2021/05/05 00:56:59;;;;;;;5.20;3.10;;;7.40;99.90;;;;;;4927379;29;20461;-77
2021/05/05 00:59:26;;;;;;;4.73;2.80;;;7.40;99.90;;;;;;4937212;29;20455;-77
2021/05/05 01:01:54;;;;;;;7.27;3.30;;;7.40;99.90;;;;;;4937405;29;20899;-77
2021/05/05 01:04:22;;;;;;;6.63;2.37;;;7.50;99.90;;;;;;4939004;29;20501;-76
2021/05/05 01:06:50;;;;;;;5.70;2.70;;;7.40;99.90;;;;;;4936917;29;20474;-76
2021/05/05 01:09:17;;;;;;;6.47;3.30;;;7.40;99.90;;;;;;4925683;29;20510;-77
2021/05/05 01:11:46;;;;;;;5.20;2.90;;;7.40;99.90;;;;;;4919434;29;21107;-77
2021/05/05 01:14:13;;;;;;;7.00;2.40;;;7.40;99.90;;;;;;4927793;29;20515;-76
2021/05/05 01:16:40;;;;;;;5.33;2.60;;;7.40;99.90;;;;;;4952080;28;20450;-76
2021/05/05 01:19:08;;;;;;;6.40;2.30;;;7.40;99.90;;;;;;4937155;29;20811;-77
2021/05/05 01:21:37;;;;;;;3.80;2.37;;;7.40;99.90;;;;;;4931471;29;20481;-77
2021/05/05 01:24:06;;;;;;;5.30;1.77;;;7.40;99.90;;;;;;4937529;29;20487;-77
2021/05/05 01:26:33;;;;;;;4.47;2.53;;;7.40;99.90;;;;;;4925625;29;20868;-77
2021/05/05 01:29:02;;;;;;;5.93;2.00;;;7.40;99.90;;;;;;4918964;29;20446;-77
2021/05/05 01:31:30;;;;;;;5.50;2.30;;;7.40;99.90;;;;;;4921315;29;20476;-77
2021/05/05 01:33:58;;;;;;;3.03;1.90;;;7.30;99.90;;;;;;4938105;29;20469;-77
2021/05/05 01:36:31;;;;;;;5.65;2.13;;;7.30;99.90;;;;;;4928109;29;20806;-77
2021/05/05 01:39:00;;;;;;;4.43;2.03;;;7.30;99.90;;;;;;4919381;29;20196;-77
2021/05/05 01:41:28;;;;;;;7.30;2.27;;;7.30;99.90;;;;;;4923639;29;20465;-77
2021/05/05 01:43:57;;;;;;;4.80;1.70;;;7.30;99.90;;;;;;4917480;29;20475;-76
2021/05/05 01:46:25;;;;;;;4.03;1.50;;;7.30;99.90;;;;;;4927932;29;20457;-77
2021/05/05 01:48:52;;;;;;;3.30;1.60;;;7.20;99.90;;;;;;4919263;29;20470;-77
2021/05/05 01:51:21;;;;;;;3.67;1.90;;;7.20;99.90;;;;;;4917728;29;20508;-77
2021/05/05 01:53:48;;;;;;;2.70;1.63;;;7.20;99.90;;;;;;4919291;29;20565;-76
2021/05/05 01:56:16;;;;;;;4.00;2.23;;;7.20;99.90;;;;;;4917268;29;20913;-76
2021/05/05 01:58:46;;;;;;;5.63;1.77;;;7.20;99.90;;;;;;4916927;29;20883;-77
2021/05/05 02:01:16;;;;;;;8.13;2.40;;;7.20;99.90;;;;;;4918853;29;21028;-77
2021/05/05 02:03:44;;;;;;;4.07;1.90;;;7.20;99.90;;;;;;4917371;29;20517;-77
2021/05/05 02:06:25;;;;;;;5.30;1.90;;;7.20;99.90;;;;;;4927606;29;20555;-77
2021/05/05 02:09:10;;;;;;;6.43;2.23;;;7.10;99.90;;;;;;4936038;29;20470;-77
2021/05/05 02:11:38;;;;;;;4.33;1.80;;;7.20;99.90;;;;;;4935788;29;20540;-77
2021/05/05 02:14:06;;;;;;;4.20;1.77;;;7.10;99.90;;;;;;4928666;29;20480;-77
2021/05/05 02:16:33;;;;;;;4.30;1.90;;;7.20;99.90;;;;;;4934457;29;20472;-77
2021/05/05 02:19:01;;;;;;;4.97;2.07;;;7.10;99.90;;;;;;4958697;28;20452;-77
2021/05/05 02:21:28;;;;;;;3.90;2.43;;;7.20;99.90;;;;;;4941663;29;20454;-77
2021/05/05 02:23:56;;;;;;;2.43;2.07;;;7.20;99.90;;;;;;4925445;29;20524;-77
2021/05/05 02:26:23;;;;;;;4.33;2.47;;;7.20;99.90;;;;;;4936657;29;20968;-77
2021/05/05 02:28:52;;;;;;;5.80;2.53;;;7.10;99.90;;;;;;4935983;29;20532;-77
2021/05/05 02:31:28;;;;;;;5.23;2.40;;;7.20;99.90;;;;;;4934785;29;20569;-77
2021/05/05 02:33:57;;;;;;;3.33;2.13;;;7.20;99.90;;;;;;4936245;29;20473;-77
2021/05/05 02:36:28;;;;;;;7.80;1.70;;;7.20;99.90;;;;;;4935875;29;20805;-77
2021/05/05 02:39:15;;;;;;;6.50;2.63;;;7.10;99.90;;;;;;4949969;29;20453;-77
2021/05/05 02:41:45;;;;;;;4.33;1.87;;;7.20;99.90;;;;;;4922931;29;20455;-76
2021/05/05 02:44:14;;;;;;;6.60;2.30;;;7.20;99.90;;;;;;4916643;29;20474;-77
2021/05/05 02:46:43;;;;;;;5.43;2.33;;;7.20;99.90;;;;;;4916381;29;20454;-77
2021/05/05 02:49:10;;;;;;;6.93;1.93;;;7.10;99.90;;;;;;4951905;29;20456;-77
2021/05/05 02:51:37;;;;;;;5.43;2.30;;;7.10;99.90;;;;;;4944840;28;20593;-77
2021/05/05 02:54:05;;;;;;;3.47;2.10;;;7.10;99.90;;;;;;4934923;29;20511;-76
2021/05/05 02:56:33;;;;;;;4.37;1.83;;;7.10;99.90;;;;;;4924155;29;20473;-76
2021/05/05 02:59:01;;;;;;;4.13;2.07;;;7.10;99.90;;;;;;4917516;29;20501;-77
2021/05/05 03:01:29;;;;;;;4.27;2.03;;;7.10;99.90;;;;;;4917683;29;20498;-77
2021/05/05 03:03:56;;;;;;;6.40;2.63;;;7.10;99.90;;;;;;4916091;29;20506;-77
2021/05/05 03:06:23;;;;;;;8.43;1.87;;;7.10;99.90;;;;;;4924786;29;20490;-77
2021/05/05 03:08:50;;;;;;;3.90;2.20;;;7.10;99.90;;;;;;4935581;29;20464;-76
2021/05/05 03:11:17;;;;;;;4.67;2.20;;;7.10;99.90;;;;;;4923087;29;20568;-76
2021/05/05 03:13:45;;;;;;;5.55;1.85;;;7.10;99.90;;;;;;4934796;29;20457;-77
2021/05/05 03:16:12;;;;;;;7.20;2.17;;;7.10;99.90;;;;;;4934917;29;20585;-77
2021/05/05 03:18:41;;;;;;;5.90;2.50;;;7.10;99.90;;;;;;4947073;29;20492;-77
2021/05/05 03:21:08;;;;;;;7.37;2.30;;;7.10;99.90;;;;;;4947167;28;20441;-77
2021/05/05 03:23:35;;;;;;;6.63;2.50;;;7.00;99.90;;;;;;4917580;29;20957;-77
2021/05/05 03:26:02;;;;;;;3.70;1.93;;;7.00;99.90;;;;;;4924346;29;20445;-76
2021/05/05 03:28:30;;;;;;;4.97;1.80;;;7.00;99.90;;;;;;4936548;29;20505;-76
2021/05/05 03:30:57;;;;;;;4.50;1.80;;;7.00;99.90;;;;;;4936100;29;20563;-77
2021/05/05 03:33:24;;;;;;;6.30;2.50;;;7.00;99.90;;;;;;4917890;29;20533;-77
2021/05/05 03:35:52;;;;;;;4.47;1.80;;;7.00;99.90;;;;;;4917178;29;20894;-77
2021/05/05 03:38:19;;;;;;;8.27;2.27;;;7.00;99.90;;;;;;4917060;29;20499;-77
2021/05/05 03:40:47;;;;;;;4.23;2.23;;;7.10;99.90;;;;;;4919119;29;20836;-77
2021/05/05 03:43:14;;;;;;;5.13;2.70;;;7.00;99.90;;;;;;4955035;28;20563;-77
2021/05/05 03:45:41;;;;;;;6.73;2.40;;;7.00;99.90;;;;;;4935375;28;20493;-77
2021/05/05 03:48:08;;;;;;;8.27;2.93;;;7.00;99.90;;;;;;4916992;29;21037;-77
2021/05/05 03:50:36;;;;;;;5.20;2.13;;;7.00;99.90;;;;;;4916392;29;20462;-77
2021/05/05 03:53:04;;;;;;;4.67;2.17;;;7.00;99.90;;;;;;4930368;28;20477;-77
2021/05/05 03:55:31;;;;;;;5.50;2.20;;;7.00;99.90;;;;;;4919976;29;20539;-76
2021/05/05 03:57:59;;;;;;;5.37;2.50;;;7.00;99.90;;;;;;4934894;29;20828;-77
2021/05/05 04:00:26;;;;;;;5.93;2.53;;;7.00;99.90;;;;;;4935831;29;20840;-77
2021/05/05 04:02:53;;;;;;;5.07;2.57;;;7.00;99.90;;;;;;4936671;29;20995;-77
2021/05/05 04:05:21;;;;;;;6.23;2.20;;;7.00;99.90;;;;;;4934447;29;20492;-77
2021/05/05 04:07:48;;;;;;;4.20;2.20;;;7.00;99.90;;;;;;4931468;29;20996;-77
2021/05/05 04:10:16;;;;;;;8.07;1.90;;;7.00;99.90;;;;;;4921733;29;20505;-77
2021/05/05 04:12:43;;;;;;;5.10;2.40;;;7.00;99.90;;;;;;4918461;29;20517;-77
2021/05/05 04:15:28;;;;;;;6.03;2.73;;;7.00;99.90;;;;;;4915427;29;20482;-77
2021/05/05 04:18:13;;;;;;;5.17;2.17;;;7.00;99.90;;;;;;4933690;29;20540;-77
2021/05/05 04:21:02;;;;;;;6.67;2.20;;;7.00;99.90;;;;;;4937287;29;20428;-77
2021/05/05 04:23:47;;;;;;;5.27;2.23;;;7.00;99.90;;;;;;4939995;29;20487;-77
2021/05/05 04:26:19;;;;;;;4.83;2.13;;;6.90;99.90;;;;;;4939362;29;20426;-77
2021/05/05 04:28:48;;;;;;;4.60;2.40;;;7.00;99.90;;;;;;4919914;29;20443;-77
2021/05/05 04:31:15;;;;;;;7.13;2.50;;;7.00;99.90;;;;;;4918975;29;20502;-77
2021/05/05 04:33:46;;;;;;;6.87;2.80;;;7.00;99.90;;;;;;4919847;29;20462;-77
2021/05/05 04:36:13;;;;;;;4.90;2.27;;;7.00;99.90;;;;;;4919014;29;20442;-77
2021/05/05 04:38:41;;;;;;;7.73;2.73;;;7.00;99.90;;;;;;4920151;29;20546;-77
2021/05/05 04:41:08;;;;;;;6.20;2.87;;;7.00;99.90;;;;;;4918493;29;20537;-77
2021/05/05 04:43:37;;;;;;;5.23;2.53;;;7.00;99.90;;;;;;4918461;29;20492;-77
2021/05/05 04:46:04;;;;;;;5.13;2.50;;;7.00;99.90;;;;;;4919595;29;20439;-77
2021/05/05 04:48:31;;;;;;;4.40;1.97;;;7.00;99.90;;;;;;4919987;29;20447;-77
2021/05/05 04:50:58;;;;;;;5.40;2.33;;;7.10;99.90;;;;;;4919521;29;20468;-77
2021/05/05 04:53:25;;;;;;;6.80;2.00;;;7.10;99.90;;;;;;4940868;29;20892;-77
2021/05/05 04:55:53;;;;;;;6.13;2.27;;;7.10;99.90;;;;;;4949191;29;20496;-77
2021/05/05 04:58:20;;;;;;;3.57;2.00;;;7.10;99.90;;;;;;4938425;29;20534;-77
2021/05/05 05:00:48;;;;;;;4.87;2.50;;;7.10;99.90;;;;;;4934294;29;20545;-77
2021/05/05 05:03:15;;;;;;;9.43;2.97;;;7.10;99.90;;;;;;4939242;29;20464;-77
2021/05/05 05:05:42;;;;;;;6.55;2.10;;;7.10;99.90;;;;;;4935911;29;20445;-77
2021/05/05 05:08:10;;;;;;;4.30;2.13;;;7.20;99.90;;;;;;4938880;29;20246;-77
2021/05/05 05:10:37;;;;;;;3.77;2.10;;;7.20;99.90;;;;;;4938201;29;20975;-77
2021/05/05 05:13:04;;;;;;;3.90;1.85;;;7.20;99.90;;;;;;4936757;29;20947;-76
2021/05/05 05:15:32;;;;;;;5.67;1.80;;;7.20;99.90;;;;;;4937088;29;20786;-76
2021/05/05 05:18:00;;;;;;;5.63;2.73;;;7.20;99.90;;;;;;4936903;29;20553;-76
2021/05/05 05:20:27;;;;;;;7.30;3.47;;;7.20;99.90;;;;;;4938463;29;20516;-76
2021/05/05 05:22:55;;;;;;;9.53;2.73;;;7.20;99.90;;;;;;4936899;29;20556;-77
2021/05/05 05:25:24;;;;;;;8.70;2.80;;;7.20;99.90;;;;;;4938007;29;20439;-77
2021/05/05 05:27:52;;;;;;;6.57;2.57;;;7.20;99.90;;;;;;4938243;29;20528;-77
2021/05/05 05:30:20;;;;;;;6.87;3.33;;;7.20;99.90;;;;;;4936895;29;20962;-77
2021/05/05 05:32:47;;;;;;;8.60;2.90;;;7.20;99.90;;;;;;4936082;29;20477;-77
2021/05/05 05:35:16;;;;;;;7.23;3.40;;;7.20;99.90;;;;;;4938729;29;20434;-77
2021/05/05 05:37:44;;;;;;;6.23;2.43;;;7.20;99.90;;;;;;4937994;29;20481;-77
2021/05/05 05:40:13;;;;;;;6.13;2.63;;;7.30;99.90;;;;;;4936573;29;20920;-76
2021/05/05 05:42:40;;;;;;;6.80;2.30;;;7.30;99.90;;;;;;4937698;29;20896;-76
2021/05/05 05:45:08;;;;;;;7.07;3.03;;;7.30;99.90;;;;;;4937162;29;20446;-78
2021/05/05 05:47:39;;;;;;;8.80;2.80;;;7.30;99.90;;;;;;4938107;29;20841;-77
2021/05/05 05:50:07;;;;;;;7.10;3.07;;;7.30;99.90;;;;;;4937586;29;20442;-76
2021/05/05 05:52:36;;;;;;;7.80;2.90;;;7.30;99.90;;;;;;4937564;29;20569;-77
2021/05/05 05:55:04;;;;;;;8.13;3.57;;;7.30;99.90;;;;;;4936480;29;20967;-77
2021/05/05 05:57:31;;;;;;;5.90;2.83;;;7.40;99.90;;;;;;4937522;29;20451;-77
2021/05/05 05:59:58;;;;;;;6.50;3.23;;;7.40;99.90;;;;;;4936855;29;20549;-77
2021/05/05 06:02:25;;;;;;;8.80;3.90;;;7.40;99.90;;;;;;4937600;29;20513;-77
2021/05/05 06:04:53;;;;;;;7.03;3.13;;;7.40;99.90;;;;;;4936095;29;20442;-77
2021/05/05 06:07:20;;;;;;;7.40;2.93;;;7.40;99.90;;;;;;4936079;29;20468;-77
2021/05/05 06:09:48;;;;;;;7.37;3.20;;;7.40;99.90;;;;;;4937349;29;20872;-77
2021/05/05 06:12:15;;;;;;;12.93;3.40;;;7.40;99.90;;;;;;4936938;29;20587;-77
2021/05/05 06:14:43;;;;;;;6.60;3.70;;;7.40;99.90;;;;;;4935885;29;20538;-77
2021/05/05 06:17:10;;;;;;;6.87;2.90;;;7.40;99.90;;;;;;4937169;29;20872;-77
2021/05/05 06:19:37;;;;;;;6.30;2.60;;;7.40;99.90;;;;;;4937610;29;20767;-77
2021/05/05 06:22:05;;;;;;;7.60;3.37;;;7.50;99.90;;;;;;4935644;29;21024;-77
2021/05/05 06:24:32;;;;;;;6.33;2.70;;;7.50;99.90;;;;;;4937110;29;20425;-76
2021/05/05 06:27:00;;;;;;;8.83;3.03;;;7.40;99.90;;;;;;4935680;29;20462;-77
2021/05/05 06:29:27;;;;;;;6.73;2.73;;;7.50;99.90;;;;;;4936935;29;20563;-77
2021/05/05 06:31:54;;;;;;;7.97;3.57;;;7.40;99.90;;;;;;4936858;29;20477;-77
2021/05/05 06:34:21;;;;;;;10.10;3.33;;;7.40;99.90;;;;;;4936695;29;20501;-76
2021/05/05 06:36:48;;;;;;;11.03;3.13;;;7.50;99.90;;;;;;4935620;29;20524;-77
2021/05/05 06:39:15;;;;;;;4.73;2.13;;;7.50;99.90;;;;;;4935406;29;20454;-77
2021/05/05 06:41:43;;;;;;;6.90;2.83;;;7.50;99.90;;;;;;4935432;29;20450;-77
2021/05/05 06:44:11;;;;;;;6.83;2.90;;;7.50;99.90;;;;;;4936284;29;20911;-77
2021/05/05 06:46:42;;;;;;;5.83;2.40;;;7.60;99.90;;;;;;4935367;29;20457;-77
2021/05/05 06:49:11;;;;;;;8.47;3.50;;;7.60;99.90;;;;;;4935240;29;20450;-77
2021/05/05 06:51:38;;;;;;;9.27;2.97;;;7.60;99.90;;;;;;4936492;29;20980;-77
2021/05/05 06:54:06;;;;;;;10.33;3.90;;;7.60;99.90;;;;;;4936732;29;20838;-77
2021/05/05 06:56:34;;;;;;;8.93;2.97;;;7.70;99.90;;;;;;4936862;29;20453;-77
2021/05/05 06:59:01;;;;;;;6.20;2.20;;;7.70;99.90;;;;;;4936507;29;20434;-77
2021/05/05 07:01:29;;;;;;;7.80;2.90;;;7.70;99.90;;;;;;4936322;29;20908;-77
2021/05/05 07:03:56;;;;;;;9.35;3.45;;;7.70;99.90;;;;;;4936002;29;20504;-77
2021/05/05 07:06:23;;;;;;;5.83;3.30;;;7.80;99.90;;;;;;4936665;29;20311;-77
2021/05/05 07:08:51;;;;;;;8.40;3.40;;;7.90;99.90;;;;;;4936630;29;20857;-77
2021/05/05 07:11:18;;;;;;;8.07;3.30;;;8.00;99.90;;;;;;4936272;29;21031;-77
2021/05/05 07:13:45;;;;;;;6.00;2.93;;;8.10;99.90;;;;;;4934971;29;20475;-77
2021/05/05 07:16:15;;;;;;;8.73;3.03;;;8.20;99.90;;;;;;4936516;29;20472;-77
2021/05/05 07:18:43;;;;;;;8.00;3.00;;;8.30;99.90;;;;;;4936455;29;20453;-77
2021/05/05 07:21:11;;;;;;;8.77;3.07;;;8.30;99.90;;;;;;4936190;29;20454;-77
2021/05/05 07:23:38;;;;;;;8.80;3.17;;;8.40;99.90;;;;;;4936056;29;20553;-77
2021/05/05 07:26:05;;;;;;;12.93;2.90;;;8.40;99.90;;;;;;4936585;29;20485;-77
2021/05/05 07:28:32;;;;;;;7.83;3.10;;;8.50;99.90;;;;;;4935820;29;20841;-77
2021/05/05 07:30:59;;;;;;;8.03;2.57;;;8.50;99.90;;;;;;4934864;29;20509;-77
2021/05/05 07:33:26;;;;;;;5.57;2.50;;;8.60;99.90;;;;;;4936144;29;20500;-77
2021/05/05 07:35:56;;;;;;;10.70;3.53;;;8.60;99.90;;;;;;4936088;29;20483;-77
2021/05/05 07:38:45;;;;;;;6.00;2.80;;;8.60;99.90;;;;;;4936276;29;20447;-77
2021/05/05 07:41:41;;;;;;;9.97;2.70;;;8.60;99.90;;;;;;4934942;29;20501;-77
2021/05/05 07:47:11;;;;;;;7.10;3.00;;;8.70;99.90;;;;;;4935978;29;20889;-77
2021/05/05 07:49:43;;;;;;;7.70;2.70;;;8.70;99.90;;;;;;4935950;29;20435;-77
2021/05/05 07:52:11;;;;;;;9.93;2.80;;;8.80;99.90;;;;;;4936275;29;20815;-77
2021/05/05 07:54:37;;;;;;;11.07;3.77;;;8.80;99.90;;;;;;4936393;29;20771;-77
2021/05/05 07:57:04;;;;;;;7.93;3.20;;;8.90;99.90;;;;;;4938875;29;20489;-77
2021/05/05 07:59:31;;;;;;;10.03;2.60;;;8.90;99.90;;;;;;4939558;29;20794;-77
2021/05/05 08:01:58;;;;;;;7.33;2.27;;;8.90;99.90;;;;;;4939303;29;20547;-77
2021/05/05 08:04:26;;;;;;;9.60;2.53;;;9.00;99.90;;;;;;4938400;29;20496;-77
2021/05/05 08:06:53;;;;;;;7.87;2.90;;;9.00;99.90;;;;;;4939493;29;20440;-77
2021/05/05 08:09:22;;;;;;;10.47;3.37;;;9.10;99.90;;;;;;4938166;29;20537;-77
2021/05/05 08:11:49;;;;;;;7.40;3.40;;;9.10;99.90;;;;;;4939097;29;20525;-77
2021/05/05 08:14:16;;;;;;;12.20;3.17;;;9.10;99.90;;;;;;4938097;29;20478;-77
2021/05/05 08:16:44;;;;;;;7.13;2.30;;;9.10;99.90;;;;;;4939368;29;20428;-77
2021/05/05 08:19:11;;;;;;;5.00;1.80;;;9.10;99.90;;;;;;4938001;29;20987;-77
2021/05/05 08:21:40;;;;;;;8.97;3.20;;;9.20;99.90;;;;;;4939120;29;20446;-77
2021/05/05 08:24:08;;;;;;;7.70;2.60;;;9.20;99.90;;;;;;4937888;29;20475;-77
2021/05/05 08:26:36;;;;;;;6.10;2.50;;;9.20;99.90;;;;;;4937816;29;20561;-77
2021/05/05 08:29:04;;;;;;;7.50;2.50;;;9.30;99.90;;;;;;4937787;29;20464;-77
2021/05/05 08:31:31;;;;;;;5.70;2.10;;;9.40;99.90;;;;;;4939210;29;20516;-77
2021/05/05 08:33:58;;;;;;;5.63;2.23;;;9.50;99.90;;;;;;4939052;29;20569;-77
2021/05/05 08:36:25;;;;;;;6.13;1.77;;;9.50;99.90;;;;;;4938966;29;20451;-77
2021/05/05 08:39:02;;;;;;;3.77;1.77;;;9.60;99.90;;;;;;4937631;29;20450;-77
2021/05/05 08:41:30;;;;;;;4.70;2.28;;;9.70;99.90;;;;;;4940562;29;20516;-78
2021/05/05 08:43:58;;;;;;;6.83;2.53;;;10.00;99.90;;;;;;4937566;29;20318;-78
2021/05/05 08:46:25;;;;;;;7.20;2.37;;;10.20;99.90;;;;;;4937543;29;20802;-78
2021/05/05 08:48:52;;;;;;;7.00;2.50;;;10.30;99.90;;;;;;4938694;29;20774;-78
2021/05/05 08:51:20;;;;;;;5.43;1.90;;;10.30;99.90;;;;;;4937781;29;20540;-77
2021/05/05 08:53:47;;;;;;;6.70;2.80;;;10.40;99.90;;;;;;4938551;29;20232;-77
2021/05/05 08:56:14;;;;;;;5.83;1.70;;;10.40;99.90;;;;;;4938892;29;20897;-77
2021/05/05 08:58:41;;;;;;;5.73;2.50;;;10.30;99.90;;;;;;4938524;29;20538;-77
2021/05/05 09:01:09;;;;;;;5.33;2.40;;;10.20;99.90;;;;;;4937186;29;20551;-77
2021/05/05 09:03:39;;;;;;;6.90;2.10;;;10.20;99.90;;;;;;4938426;29;20821;-77
2021/05/05 09:06:07;;;;;;;3.50;1.97;;;10.10;99.90;;;;;;4938365;29;20495;-77
2021/05/05 09:08:35;;;;;;;6.60;1.80;;;10.10;99.90;;;;;;4937655;29;20862;-77
2021/05/05 09:11:05;;;;;;;3.30;1.70;;;10.10;99.90;;;;;;4938405;29;20499;-77
2021/05/05 09:13:53;;;;;;;5.43;1.90;;;10.10;99.90;;;;;;4937068;29;20859;-77
2021/05/05 09:16:23;;;;;;;7.60;2.33;;;10.20;99.90;;;;;;4938460;29;20448;-77
2021/05/05 09:18:55;;;;;;;7.37;2.27;;;10.20;99.90;;;;;;4936896;29;20949;-77
2021/05/05 09:21:28;;;;;;;6.00;1.80;;;10.30;99.90;;;;;;4936817;29;20807;-77
2021/05/05 09:24:13;;;;;;;6.60;2.77;;;10.40;99.90;;;;;;4936758;29;20837;-77
2021/05/05 09:26:40;;;;;;;5.33;2.23;;;10.40;99.90;;;;;;4938332;29;20787;-77
2021/05/05 09:29:08;;;;;;;5.43;2.03;;;10.30;99.90;;;;;;4936725;29;20459;-77
2021/05/05 09:31:37;;;;;;;8.90;2.20;;;10.30;99.90;;;;;;4938223;29;20511;-77
2021/05/05 09:34:07;;;;;;;4.40;1.87;;;10.30;99.90;;;;;;4938421;29;20460;-77
2021/05/05 09:36:35;;;;;;;3.60;1.90;;;10.40;99.90;;;;;;4938534;29;20472;-78
2021/05/05 09:39:05;;;;;;;5.47;1.70;;;10.40;99.90;;;;;;4938136;29;20483;-77
2021/05/05 09:41:34;;;;;;;5.80;2.37;;;10.40;99.90;;;;;;4936887;29;21013;-78
2021/05/05 09:44:04;;;;;;;5.23;1.90;;;10.40;99.90;;;;;;4936509;29;20989;-78
2021/05/05 09:46:41;;;;;;;4.90;2.37;;;10.40;99.90;;;;;;4937104;29;20486;-78
2021/05/05 09:49:27;;;;;;;7.33;2.20;;;10.40;99.90;;;;;;4936381;29;20458;-78
2021/05/05 09:51:58;;;;;;;5.07;1.80;;;10.30;99.90;;;;;;4937559;29;20467;-78
2021/05/05 09:54:32;;;;;;;6.50;1.97;;;10.30;99.90;;;;;;4936238;29;20531;-78
2021/05/05 09:57:13;;;;;;;2.70;2.00;;;10.10;99.90;;;;;;4936440;29;20488;-78
2021/05/05 10:00:03;;;;;;;4.40;1.90;;;10.00;99.90;;;;;;4937642;29;20790;-77
2021/05/05 10:02:44;;;;;;;3.43;1.80;;;9.90;99.90;;;;;;4937259;29;20958;-77
2021/05/05 10:05:14;;;;;;;3.70;1.57;;;9.90;99.90;;;;;;4937427;29;20421;-77
2021/05/05 10:07:53;;;;;;;3.37;1.27;;;9.90;99.90;;;;;;4937441;29;20980;-77
2021/05/05 10:10:21;;;;;;;2.50;0.90;;;9.80;99.90;;;;;;4935886;29;20444;-78
2021/05/05 10:12:49;;;;;;;2.50;1.13;;;9.80;99.90;;;;;;4937329;29;20493;-78
2021/05/05 10:15:17;;;;;;;3.17;1.10;;;9.70;99.90;;;;;;4935811;29;20550;-77
2021/05/05 10:17:48;;;;;;;3.30;1.20;;;9.60;99.90;;;;;;4934880;29;20883;-77
2021/05/05 10:20:19;;;;;;;3.07;1.13;;;9.70;99.90;;;;;;4936696;29;20197;-77
2021/05/05 10:22:46;;;;;;;2.30;1.27;;;9.80;99.90;;;;;;4937052;29;20466;-77
2021/05/05 10:25:15;;;;;;;1.63;0.83;;;9.80;99.90;;;;;;4936783;29;20794;-77
2021/05/05 10:27:43;;;;;;;3.08;1.40;;;9.80;99.90;;;;;;4934747;29;20452;-77
2021/05/05 10:30:13;;;;;;;2.80;1.20;;;10.00;99.90;;;;;;4935539;29;20649;-78
2021/05/05 10:32:42;;;;;;;2.30;1.40;;;10.00;99.90;;;;;;4936885;29;20507;-78
2021/05/05 10:35:13;;;;;;;4.27;1.83;;;10.10;99.90;;;;;;4935381;29;20483;-78
2021/05/05 10:37:43;;;;;;;3.23;1.80;;;10.20;99.90;;;;;;4936626;29;20440;-78
2021/05/05 10:40:19;;;;;;;2.23;1.37;;;10.20;99.90;;;;;;4936843;29;20471;-78
2021/05/05 10:43:05;;;;;;;2.47;1.40;;;10.10;99.90;;;;;;4936688;29;20460;-78
2021/05/05 10:45:35;;;;;;;2.57;1.30;;;10.00;99.90;;;;;;4936570;29;20456;-78
2021/05/05 10:48:05;;;;;;;4.00;1.47;;;9.90;99.90;;;;;;4935325;29;20462;-78
2021/05/05 10:50:52;;;;;;;3.83;1.53;;;9.80;99.90;;;;;;4936529;29;21025;-77
2021/05/05 10:53:21;;;;;;;4.60;1.27;;;9.60;99.90;;;;;;4935001;29;21008;-77
2021/05/05 10:55:50;;;;;;;3.80;1.43;;;9.50;99.90;;;;;;4935093;29;20446;-77
2021/05/05 10:58:20;;;;;;;3.40;2.00;;;9.40;99.90;;;;;;4936755;29;20467;-77
2021/05/05 11:01:01;;;;;;;5.20;2.43;;;9.20;99.90;;;;;;4936588;29;20507;-77
2021/05/05 11:04:05;;;;;;;4.10;1.70;;;9.20;99.90;;;;;;4934970;29;20888;-77
2021/05/05 11:06:55;;;;;;;2.17;1.50;;;9.10;99.90;;;;;;4936531;29;20522;-77
2021/05/05 11:09:42;;;;;;;4.00;2.00;;;9.10;99.90;;;;;;4936118;29;20518;-77
2021/05/05 11:12:46;;;;;;;5.27;2.00;;;9.10;99.90;;;;;;4936095;29;20915;-77
2021/05/05 11:15:16;;;;;;;2.27;1.50;;;9.10;99.90;;;;;;4934855;29;20879;-77
2021/05/05 11:17:43;;;;;;;2.50;1.67;;;9.10;99.90;;;;;;4936034;29;20514;-77
2021/05/05 11:20:11;;;;;;;1.93;0.90;;;9.00;99.90;;;;;;4936262;29;20527;-77
2021/05/05 11:22:45;;;;;;;1.97;1.20;;;9.00;99.90;;;;;;4935892;29;20562;-77
2021/05/05 11:25:34;;;;;;;2.07;0.90;;;8.90;99.90;;;;;;4934765;29;21018;-77
2021/05/05 11:28:02;;;;;;;2.03;0.80;;;8.80;99.90;;;;;;4933341;29;20459;-77
2021/05/05 11:30:39;;;;;;;1.87;1.10;;;8.80;99.90;;;;;;4936571;29;20447;-77
2021/05/05 11:33:08;;;;;;;1.47;1.00;;;8.80;99.90;;;;;;4939853;29;21042;-77
2021/05/05 11:35:37;;;;;;;2.00;1.20;;;8.80;99.90;;;;;;4939903;29;20971;-77
2021/05/05 11:38:31;;;;;;;2.50;0.90;;;8.90;99.90;;;;;;4939863;29;20459;-77
2021/05/05 11:41:02;;;;;;;1.47;1.00;;;9.00;99.90;;;;;;4931198;29;20559;-77
2021/05/05 11:43:31;;;;;;;3.47;1.27;;;9.00;99.90;;;;;;4938437;29;20574;-77
2021/05/05 11:46:03;;;;;;;1.47;1.10;;;9.10;99.90;;;;;;4938494;29;20551;-77
2021/05/05 11:48:36;;;;;;;2.70;1.53;;;9.10;99.90;;;;;;4939938;29;20433;-77
2021/05/05 11:51:23;;;;;;;2.65;1.50;;;9.10;99.90;;;;;;4938231;29;20465;-77
2021/05/05 11:53:51;;;;;;;2.43;1.23;;;9.20;99.90;;;;;;4938220;29;20676;-77
2021/05/05 11:56:22;;;;;;;1.80;1.07;;;9.20;99.90;;;;;;4939523;29;20454;-78
2021/05/05 11:58:57;;;;;;;1.93;1.40;;;9.20;99.90;;;;;;4939784;29;20913;-77
2021/05/05 12:01:29;;;;;;;2.90;1.47;;;9.30;99.90;;;;;;4939358;29;20537;-77
2021/05/05 12:04:20;;;;;;;2.17;1.40;;;9.40;99.90;;;;;;4938057;29;20471;-77
2021/05/05 12:06:55;;;;;;;2.47;1.60;;;9.40;99.90;;;;;;4938029;29;20506;-77
2021/05/05 12:09:28;;;;;;;5.57;1.87;;;9.40;99.90;;;;;;4938097;29;20454;-77
2021/05/05 12:12:15;;;;;;;3.60;1.80;;;9.40;99.90;;;;;;4939195;29;20454;-77
2021/05/05 12:14:45;;;;;;;3.83;1.87;;;9.40;99.90;;;;;;4937998;29;20966;-77
2021/05/05 12:17:17;;;;;;;2.80;1.40;;;9.50;99.90;;;;;;4939470;29;20441;-77
2021/05/05 12:19:53;;;;;;;3.80;1.90;;;9.50;99.90;;;;;;4937928;29;20956;-77
2021/05/05 12:22:21;;;;;;;2.33;1.90;;;9.60;99.90;;;;;;4938997;29;20490;-77
2021/05/05 12:25:09;;;;;;;3.50;1.87;;;9.70;99.90;;;;;;4939460;29;20447;-77
2021/05/05 12:27:38;;;;;;;5.50;2.40;;;9.70;99.90;;;;;;4939107;29;20455;-77
2021/05/05 12:30:07;;;;;;;5.87;1.80;;;9.70;99.90;;;;;;4937738;29;20512;-77
2021/05/05 12:32:44;;;;;;;3.70;2.00;;;9.70;99.90;;;;;;4937604;29;20476;-77
2021/05/05 12:35:19;;;;;;;6.80;1.87;;;9.60;99.90;;;;;;4938935;29;20454;-77
2021/05/05 12:37:47;;;;;;;5.10;2.00;;;9.50;99.90;;;;;;4937563;29;21022;-77
2021/05/05 12:40:15;;;;;;;5.10;1.90;;;9.40;99.90;;;;;;4937419;29;20536;-77
2021/05/05 12:42:43;;;;;;;5.23;1.80;;;9.50;99.90;;;;;;4936885;29;20558;-77
2021/05/05 12:45:14;;;;;;;6.33;2.50;;;9.50;99.90;;;;;;4938641;29;20535;-77
2021/05/05 12:47:42;;;;;;;4.50;2.13;;;9.50;99.90;;;;;;4937319;29;20972;-77
2021/05/05 12:50:11;;;;;;;4.97;2.73;;;9.50;99.90;;;;;;4938824;29;20423;-77
2021/05/05 12:52:40;;;;;;;3.13;1.60;;;9.50;99.90;;;;;;4938398;29;20565;-77
2021/05/05 12:55:25;;;;;;;5.33;2.27;;;9.40;99.90;;;;;;4938540;29;20426;-77
2021/05/05 12:58:05;;;;;;;5.33;2.50;;;9.30;99.90;;;;;;4938484;29;20466;-77
2021/05/05 13:00:33;;;;;;;3.67;1.70;;;9.30;99.90;;;;;;4937114;29;20475;-77
2021/05/05 13:03:06;;;;;;;7.10;2.80;;;9.40;99.90;;;;;;4938354;29;20497;-77
2021/05/05 13:05:53;;;;;;;4.83;2.20;;;9.40;99.90;;;;;;4938579;29;20455;-78
2021/05/05 13:08:36;;;;;;;7.27;1.87;;;9.50;99.90;;;;;;4938476;29;20432;-78
2021/05/05 13:11:07;;;;;;;7.90;2.60;;;9.60;99.90;;;;;;4938394;29;20478;-78
2021/05/05 13:13:48;;;;;;;5.73;2.67;;;9.70;99.90;;;;;;4937720;29;20453;-78